Levack, Canada
Current Conditions -  °F | °C
As of 1:00 PM on Friday 24 Oct 2014 (Local Time) from CYSB Reporting Station
Broken Clouds Broken Clouds  
Wind Chill: 50°   Ceiling: 3400
Heat Index: 50°   Visibility: 20mi
Dew Point: 36°   Wind: 7mph
Humidity: 58%   Direction: 260°W
Pressure: 29.96"   Gusts: NA
Location:  46.63°N, 81.38°W
Report Text: CYSB 241700Z 26006KT 20SM BKN034 10/02 A2996 RMK SC7 SLP157
Loading
Personal Weather Stations






























Interactive Weather Map
Tropical Storm Tracking
New forecast layout! Learn more

10-Day Weather Forecast

Advertisements
Track Severe Weather on mobile